Time;durP1;ratioP1;P1;durP2;ratioP2;P2;SDS_P1;SDS_P2;PMS_P1;PMS_P2;Temp;Humidity;BMP_temperature;BMP_pressure;BME280_temperature;BME280_humidity;BME280_pressure;Samples;Min_cycle;Max_cycle;Signal;HPM_P1;HPM_P2
2022/05/09 00:01:52;;;;;;;8.20;3.90;;;14.10;95.10;;;;;;6303019;28;20409;-84
2022/05/09 00:04:54;;;;;;;9.45;4.10;;;14.10;95.20;;;;;;6303241;28;20051;-84
2022/05/09 00:07:56;;;;;;;6.18;4.05;;;14.00;95.30;;;;;;6304165;28;20178;-84
2022/05/09 00:10:58;;;;;;;7.20;4.43;;;14.00;95.30;;;;;;6304023;28;20470;-84
2022/05/09 00:14:00;;;;;;;4.57;3.45;;;14.00;95.40;;;;;;6302880;28;20056;-84
2022/05/09 00:17:03;;;;;;;6.40;3.90;;;13.90;95.50;;;;;;6302426;28;20040;-85
2022/05/09 00:20:06;;;;;;;7.45;4.80;;;13.90;95.50;;;;;;6302085;28;20415;-84
2022/05/09 00:23:08;;;;;;;6.50;4.55;;;13.90;95.60;;;;;;6303870;28;20056;-84
2022/05/09 00:26:10;;;;;;;6.00;3.80;;;13.90;95.60;;;;;;6301401;28;20074;-84
2022/05/09 00:29:13;;;;;;;6.22;4.35;;;13.80;95.60;;;;;;6300140;28;20056;-84
2022/05/09 00:32:17;;;;;;;8.07;4.82;;;13.70;95.70;;;;;;6300411;28;20099;-84
2022/05/09 00:35:18;;;;;;;7.72;4.32;;;13.80;95.90;;;;;;6300297;28;20056;-85
2022/05/09 00:38:20;;;;;;;12.85;5.00;;;13.80;95.80;;;;;;6300099;28;20536;-84
2022/05/09 00:41:38;;;;;;;7.07;4.85;;;13.70;95.80;;;;;;6300520;28;20041;-84
2022/05/09 00:44:40;;;;;;;6.43;4.25;;;13.70;96.00;;;;;;6300378;28;20044;-84
2022/05/09 00:47:44;;;;;;;13.15;4.68;;;13.80;95.80;;;;;;6300416;28;20043;-85
2022/05/09 00:50:46;;;;;;;7.57;4.68;;;13.70;95.90;;;;;;6300352;28;20057;-84
2022/05/09 00:53:49;;;;;;;10.98;7.15;;;13.70;96.30;;;;;;6308960;28;20052;-83
2022/05/09 00:56:58;;;;;;;8.90;5.03;;;13.70;96.30;;;;;;6307991;28;20818;-83
2022/05/09 01:00:07;;;;;;;6.00;4.70;;;13.70;96.70;;;;;;6310409;28;20040;-84
2022/05/09 01:03:16;;;;;;;10.57;7.22;;;13.70;96.60;;;;;;6306162;28;20052;-84
2022/05/09 01:06:18;;;;;;;5.93;4.75;;;13.60;96.60;;;;;;6301083;28;20206;-83
2022/05/09 01:09:20;;;;;;;7.25;5.03;;;13.60;96.50;;;;;;6305199;28;20058;-83
2022/05/09 01:12:26;;;;;;;6.03;5.00;;;13.60;96.60;;;;;;6305964;28;20425;-83
2022/05/09 01:15:27;;;;;;;7.85;5.07;;;13.60;96.60;;;;;;6305163;28;20055;-83
2022/05/09 01:18:31;;;;;;;9.35;4.50;;;13.60;96.80;;;;;;6305850;28;20130;-83
2022/05/09 01:21:36;;;;;;;8.52;6.03;;;13.60;96.60;;;;;;6305094;28;20131;-83
2022/05/09 01:24:38;;;;;;;9.68;5.63;;;13.60;96.70;;;;;;6305698;28;20048;-83
2022/05/09 01:27:42;;;;;;;7.28;6.03;;;13.60;96.90;;;;;;6300509;28;20037;-83
2022/05/09 01:30:51;;;;;;;11.75;6.85;;;13.70;96.80;;;;;;6298377;28;20052;-84
2022/05/09 01:33:53;;;;;;;9.07;5.70;;;13.70;97.10;;;;;;6298688;28;20179;-84
2022/05/09 01:37:03;;;;;;;12.55;6.68;;;13.70;97.30;;;;;;6297527;28;20045;-85
2022/05/09 01:40:06;;;;;;;8.85;6.97;;;13.80;97.30;;;;;;6297839;28;20044;-85
2022/05/09 01:43:08;;;;;;;9.63;6.55;;;13.80;97.00;;;;;;6298438;28;20067;-85
2022/05/09 01:46:13;;;;;;;8.48;5.65;;;13.80;97.00;;;;;;6297334;28;20059;-84
2022/05/09 01:49:32;;;;;;;16.15;6.65;;;13.90;96.90;;;;;;6297321;28;20048;-85
2022/05/09 01:52:36;;;;;;;9.98;5.95;;;13.90;96.80;;;;;;6297586;28;20498;-85
2022/05/09 01:55:37;;;;;;;12.02;6.75;;;13.80;96.70;;;;;;6297567;28;20051;-85
2022/05/09 01:58:39;;;;;;;9.00;6.40;;;13.80;96.80;;;;;;6298392;28;20041;-84
2022/05/09 02:01:45;;;;;;;18.60;6.15;;;13.90;97.10;;;;;;6299241;28;20395;-84
2022/05/09 02:04:47;;;;;;;9.00;6.95;;;13.90;97.30;;;;;;6297589;28;20044;-84
2022/05/09 02:07:50;;;;;;;9.20;5.93;;;13.90;97.00;;;;;;6298117;28;20054;-85
2022/05/09 02:10:52;;;;;;;8.55;6.13;;;13.90;97.00;;;;;;6300051;28;20137;-84
2022/05/09 02:13:53;;;;;;;9.07;6.75;;;13.90;97.00;;;;;;6300976;28;20117;-84
2022/05/09 02:16:55;;;;;;;9.50;6.47;;;13.90;97.20;;;;;;6300370;28;20048;-84
2022/05/09 02:19:58;;;;;;;10.68;6.90;;;13.80;97.20;;;;;;6299574;28;20044;-84
2022/05/09 02:23:01;;;;;;;14.98;7.05;;;13.80;97.30;;;;;;6299745;28;20504;-84
2022/05/09 02:26:03;;;;;;;13.23;6.78;;;13.80;97.30;;;;;;6299850;28;20530;-83
2022/05/09 02:29:05;;;;;;;11.70;6.93;;;13.80;97.40;;;;;;6302235;28;20400;-83
2022/05/09 02:32:09;;;;;;;10.52;7.50;;;13.80;97.30;;;;;;6305430;28;20074;-82
2022/05/09 02:35:10;;;;;;;10.05;6.75;;;13.70;97.40;;;;;;6305728;28;20076;-83
2022/05/09 02:38:13;;;;;;;9.95;6.57;;;13.80;97.50;;;;;;6303413;28;20055;-83
2022/05/09 02:41:15;;;;;;;9.27;5.85;;;13.70;97.50;;;;;;6301847;28;20040;-83
2022/05/09 02:44:17;;;;;;;12.85;6.63;;;13.70;97.60;;;;;;6299760;28;20073;-83
2022/05/09 02:47:20;;;;;;;10.38;6.80;;;13.60;97.50;;;;;;6298754;28;20056;-83
2022/05/09 02:50:23;;;;;;;12.05;8.10;;;13.60;97.70;;;;;;6296772;28;20651;-84
2022/05/09 02:53:26;;;;;;;12.45;6.88;;;13.60;97.50;;;;;;6299322;28;20117;-84
2022/05/09 02:56:28;;;;;;;11.60;6.72;;;13.60;97.40;;;;;;6297981;28;20076;-84
2022/05/09 02:59:30;;;;;;;12.23;7.07;;;13.60;97.40;;;;;;6300797;28;20123;-84
2022/05/09 03:02:32;;;;;;;8.70;5.75;;;13.60;97.60;;;;;;6302112;28;20064;-84
2022/05/09 03:05:34;;;;;;;9.65;6.32;;;13.60;97.50;;;;;;6301327;28;20046;-84
2022/05/09 03:08:38;;;;;;;11.65;7.03;;;13.50;97.40;;;;;;6301021;28;20032;-85
2022/05/09 03:11:40;;;;;;;9.50;6.95;;;13.50;97.40;;;;;;6301139;28;20390;-84
2022/05/09 03:14:42;;;;;;;9.05;6.70;;;13.50;97.70;;;;;;6302437;28;20502;-83
2022/05/09 03:17:44;;;;;;;11.52;7.13;;;13.50;97.50;;;;;;6307421;28;20051;-84
2022/05/09 03:20:46;;;;;;;14.77;7.53;;;13.50;97.50;;;;;;6308835;28;20055;-84
2022/05/09 03:23:49;;;;;;;10.10;6.82;;;13.40;97.60;;;;;;6305749;28;20041;-84
2022/05/09 03:26:51;;;;;;;10.65;7.07;;;13.50;97.60;;;;;;6301578;28;20071;-85
2022/05/09 03:29:53;;;;;;;13.00;7.28;;;13.40;97.70;;;;;;6300733;28;20047;-84
2022/05/09 03:32:54;;;;;;;10.32;6.55;;;13.40;97.60;;;;;;6304394;28;20394;-83
2022/05/09 03:35:59;;;;;;;15.13;8.00;;;13.40;97.60;;;;;;6302372;28;20040;-83
2022/05/09 03:39:02;;;;;;;9.70;6.00;;;13.40;97.60;;;;;;6302636;28;20071;-83
2022/05/09 03:42:06;;;;;;;11.20;7.22;;;13.40;97.90;;;;;;6302181;28;20044;-84
2022/05/09 03:45:08;;;;;;;12.68;7.70;;;13.40;97.70;;;;;;6301349;28;20597;-83
2022/05/09 03:48:10;;;;;;;17.17;6.97;;;13.40;97.70;;;;;;6301833;28;20049;-83
2022/05/09 03:51:12;;;;;;;16.00;7.70;;;13.30;97.70;;;;;;6300551;28;20531;-83
2022/05/09 03:54:15;;;;;;;7.78;6.40;;;13.30;97.80;;;;;;6301737;28;20045;-84
2022/05/09 03:57:17;;;;;;;11.23;7.20;;;13.30;97.90;;;;;;6300712;28;20093;-83
2022/05/09 04:00:21;;;;;;;10.55;6.88;;;13.20;97.80;;;;;;6299786;28;20504;-84
2022/05/09 04:03:23;;;;;;;10.73;7.10;;;13.20;97.80;;;;;;6300324;28;20170;-84
2022/05/09 04:06:25;;;;;;;12.60;8.00;;;13.20;97.70;;;;;;6300247;28;20127;-83
2022/05/09 04:09:28;;;;;;;18.50;7.70;;;13.20;97.70;;;;;;6302427;28;20052;-83
2022/05/09 04:12:30;;;;;;;12.32;7.13;;;13.20;97.60;;;;;;6308613;28;20127;-85
2022/05/09 04:18:53;;;;;;;9.63;7.88;;;13.30;97.50;;;;;;6299820;28;20048;-84
2022/05/09 04:21:55;;;;;;;8.95;6.38;;;13.30;97.40;;;;;;6299784;28;20506;-84
2022/05/09 04:24:58;;;;;;;11.48;7.50;;;13.40;97.40;;;;;;6299357;28;20521;-84
2022/05/09 04:28:00;;;;;;;11.38;8.30;;;13.50;97.40;;;;;;6299966;28;20494;-84
2022/05/09 04:31:02;;;;;;;10.85;7.15;;;13.50;97.30;;;;;;6301785;28;20044;-84
2022/05/09 04:34:04;;;;;;;13.27;8.52;;;13.60;97.30;;;;;;6299469;28;20127;-84
2022/05/09 04:37:05;;;;;;;12.15;7.95;;;13.70;97.20;;;;;;6299719;28;20078;-83
2022/05/09 04:40:11;;;;;;;14.50;7.53;;;13.80;97.10;;;;;;6299194;28;20448;-83
2022/05/09 04:43:12;;;;;;;13.00;8.63;;;13.90;97.00;;;;;;6305088;28;20048;-84
2022/05/09 04:46:15;;;;;;;12.55;7.82;;;13.90;96.90;;;;;;6306452;28;20048;-84
2022/05/09 04:49:17;;;;;;;11.32;7.60;;;14.00;96.90;;;;;;6300327;28;20489;-84
2022/05/09 05:00:01;;;;;;;11.70;7.20;;;14.70;96.10;;;;;;6301694;28;20037;-83
2022/05/09 05:03:03;;;;;;;10.15;6.80;;;15.60;95.20;;;;;;6303087;28;20052;-83
2022/05/09 05:06:06;;;;;;;8.77;6.63;;;17.00;93.20;;;;;;6301035;28;20501;-84
2022/05/09 05:09:08;;;;;;;9.55;6.65;;;18.60;91.00;;;;;;6299782;28;20067;-84
2022/05/09 05:12:11;;;;;;;10.52;6.03;;;19.80;86.80;;;;;;6300496;28;20048;-85
2022/05/09 05:15:14;;;;;;;8.73;6.40;;;20.70;83.30;;;;;;6300196;28;20057;-84
2022/05/09 05:18:20;;;;;;;7.75;5.32;;;21.40;80.80;;;;;;6301143;28;20127;-85
2022/05/09 05:21:21;;;;;;;6.03;4.60;;;22.00;78.30;;;;;;6299474;28;20174;-84
2022/05/09 05:24:24;;;;;;;8.05;5.35;;;21.90;77.70;;;;;;6300705;28;20122;-83
2022/05/09 05:27:26;;;;;;;8.88;4.70;;;21.20;78.50;;;;;;6300374;28;20059;-83
2022/05/09 05:30:57;;;;;;;7.30;5.10;;;20.70;80.50;;;;;;6300143;28;20403;-84
2022/05/09 05:33:59;;;;;;;8.20;5.05;;;20.60;80.50;;;;;;6298452;28;20044;-85
2022/05/09 05:37:01;;;;;;;9.48;5.30;;;20.80;79.50;;;;;;6303714;28;20051;-84
2022/05/09 05:40:03;;;;;;;6.95;4.45;;;20.90;79.30;;;;;;6304543;28;20036;-84
2022/05/09 05:43:05;;;;;;;10.07;5.40;;;21.10;79.20;;;;;;6303332;28;20139;-84
2022/05/09 05:46:10;;;;;;;7.00;4.88;;;21.40;77.60;;;;;;6304337;28;20052;-85
2022/05/09 05:49:12;;;;;;;9.13;4.70;;;21.80;76.40;;;;;;6304986;28;20099;-84
2022/05/09 05:52:14;;;;;;;6.05;4.50;;;22.30;75.20;;;;;;6304637;28;20050;-84
2022/05/09 05:55:19;;;;;;;4.55;3.72;;;23.20;73.30;;;;;;6306186;28;20084;-84
2022/05/09 05:58:22;;;;;;;15.52;4.68;;;24.30;69.80;;;;;;6307882;28;20052;-84
2022/05/09 06:01:25;;;;;;;6.55;4.22;;;25.30;66.80;;;;;;6307314;28;20049;-84
2022/05/09 06:04:27;;;;;;;8.63;4.93;;;26.50;62.70;;;;;;6305179;28;20067;-85
2022/05/09 06:07:29;;;;;;;7.57;4.47;;;27.60;58.50;;;;;;6306168;28;20056;-85
2022/05/09 06:10:31;;;;;;;6.90;3.72;;;28.20;54.90;;;;;;6307834;28;20051;-83
2022/05/09 06:13:32;;;;;;;5.05;3.70;;;28.00;52.80;;;;;;6307494;28;20055;-84
2022/05/09 06:16:37;;;;;;;10.10;4.38;;;27.80;52.80;;;;;;6305219;28;20055;-84
2022/05/09 06:19:38;;;;;;;4.85;3.67;;;27.70;53.60;;;;;;6305010;28;20040;-84
2022/05/09 06:22:41;;;;;;;10.68;4.20;;;27.80;51.60;;;;;;6306559;28;20534;-84
2022/05/09 06:25:44;;;;;;;5.43;4.18;;;27.80;51.50;;;;;;6310930;28;20139;-84
2022/05/09 06:28:46;;;;;;;7.13;4.40;;;28.00;50.40;;;;;;6308282;28;20048;-85
2022/05/09 06:31:49;;;;;;;7.10;4.55;;;28.30;50.00;;;;;;6307904;28;20041;-85
2022/05/09 06:34:51;;;;;;;4.97;3.95;;;29.10;49.20;;;;;;6309276;28;20048;-85
2022/05/09 06:37:57;;;;;;;8.10;4.32;;;30.20;47.00;;;;;;6308081;28;20445;-84
2022/05/09 06:41:00;;;;;;;4.55;3.58;;;30.60;44.60;;;;;;6308348;28;20045;-84
2022/05/09 06:44:02;;;;;;;6.22;3.38;;;31.10;43.60;;;;;;6306230;28;20052;-84
2022/05/09 06:47:06;;;;;;;7.60;4.03;;;31.50;43.50;;;;;;6303454;28;20053;-85
2022/05/09 06:50:09;;;;;;;5.25;3.47;;;32.50;42.30;;;;;;6305118;28;20040;-84
2022/05/09 06:53:12;;;;;;;5.22;3.95;;;33.40;40.00;;;;;;6304296;28;20052;-86
2022/05/09 06:56:14;;;;;;;4.72;3.50;;;33.70;39.30;;;;;;6302155;28;20063;-85
2022/05/09 06:59:19;;;;;;;6.28;3.25;;;34.30;38.80;;;;;;6301646;28;20085;-85
2022/05/09 07:02:22;;;;;;;3.42;2.92;;;34.90;37.50;;;;;;6300911;28;20512;-86
2022/05/09 07:05:24;;;;;;;6.03;3.50;;;35.50;37.00;;;;;;6299857;28;20045;-86
2022/05/09 07:08:32;;;;;;;3.83;2.95;;;35.70;35.70;;;;;;6299083;28;20137;-85
2022/05/09 07:11:33;;;;;;;6.43;3.10;;;35.00;35.40;;;;;;6299721;28;20044;-86
2022/05/09 07:14:35;;;;;;;5.25;3.65;;;33.70;36.20;;;;;;6300422;28;20126;-86
2022/05/09 07:17:38;;;;;;;4.00;3.10;;;32.90;37.60;;;;;;6275098;28;20051;-85
2022/05/09 07:20:40;;;;;;;5.55;3.10;;;32.60;38.50;;;;;;6301749;28;20472;-85
2022/05/09 07:23:43;;;;;;;4.32;2.92;;;32.50;38.30;;;;;;6300914;28;20161;-85
2022/05/09 07:26:44;;;;;;;5.43;3.80;;;32.60;38.30;;;;;;6298724;28;20059;-85
2022/05/09 07:29:46;;;;;;;6.53;2.65;;;32.40;38.00;;;;;;6298830;28;20123;-84
2022/05/09 07:32:52;;;;;;;4.00;3.10;;;32.30;38.60;;;;;;6298939;28;20047;-85
2022/05/09 07:35:54;;;;;;;6.80;3.60;;;32.20;38.50;;;;;;6299321;28;20062;-83
2022/05/09 07:38:56;;;;;;;2.97;2.67;;;32.10;39.10;;;;;;6298554;28;20068;-85
2022/05/09 07:41:58;;;;;;;6.07;3.03;;;32.60;38.50;;;;;;6297256;28;20540;-84
2022/05/09 07:44:59;;;;;;;6.15;3.35;;;32.60;38.10;;;;;;6300904;28;20052;-83
2022/05/09 07:48:03;;;;;;;4.82;3.10;;;32.30;38.10;;;;;;6302888;28;20060;-84
2022/05/09 07:51:05;;;;;;;5.07;2.80;;;32.30;38.90;;;;;;6303087;28;20094;-85
2022/05/09 07:54:08;;;;;;;6.70;3.25;;;32.80;38.50;;;;;;6292179;28;20040;-85
2022/05/09 07:57:10;;;;;;;7.05;3.90;;;32.80;38.10;;;;;;6299607;28;20108;-83
2022/05/09 08:00:13;;;;;;;3.75;2.42;;;33.10;37.50;;;;;;6299162;28;20497;-84
2022/05/09 08:03:18;;;;;;;4.68;2.72;;;33.60;37.90;;;;;;6298533;28;20052;-85
2022/05/09 08:06:20;;;;;;;3.50;2.70;;;34.40;36.80;;;;;;6299739;28;20053;-86
2022/05/09 08:09:21;;;;;;;6.53;2.88;;;34.70;35.70;;;;;;6299909;28;20123;-86
2022/05/09 08:12:23;;;;;;;8.32;2.97;;;34.90;36.10;;;;;;6299513;28;20044;-86
2022/05/09 08:15:26;;;;;;;5.47;3.13;;;35.50;35.40;;;;;;6299547;28;20402;-86
2022/05/09 08:18:31;;;;;;;10.50;2.78;;;35.40;35.10;;;;;;6300066;28;20041;-86
2022/05/09 08:21:33;;;;;;;3.30;2.53;;;35.00;35.40;;;;;;6301097;28;20052;-83
2022/05/09 08:24:35;;;;;;;3.60;2.33;;;35.40;35.40;;;;;;6299604;28;20045;-85
2022/05/09 08:27:37;;;;;;;4.90;2.63;;;36.30;35.10;;;;;;6299393;28;20124;-85
2022/05/09 08:30:39;;;;;;;5.18;2.35;;;36.60;34.30;;;;;;6299544;28;20056;-86
2022/05/09 08:33:42;;;;;;;3.42;2.47;;;36.20;33.60;;;;;;6298964;28;20131;-85
2022/05/09 08:36:48;;;;;;;4.47;2.30;;;35.70;34.40;;;;;;6298945;28;20083;-86
2022/05/09 08:39:50;;;;;;;3.50;2.55;;;34.90;35.00;;;;;;6299325;28;20065;-85
2022/05/09 08:43:01;;;;;;;8.93;2.78;;;34.50;35.50;;;;;;6300689;28;20044;-84
2022/05/09 08:46:10;;;;;;;6.65;2.72;;;34.60;36.00;;;;;;6299607;28;20120;-86
2022/05/09 08:49:29;;;;;;;3.33;2.38;;;35.20;35.70;;;;;;6298065;28;20174;-85
2022/05/09 08:52:39;;;;;;;6.10;2.63;;;36.00;34.40;;;;;;6298627;28;20174;-84
2022/05/09 08:55:43;;;;;;;3.42;2.78;;;36.00;34.00;;;;;;6298581;28;20089;-85
2022/05/09 08:58:51;;;;;;;4.03;2.20;;;35.80;34.10;;;;;;6303320;28;20090;-85
2022/05/09 09:01:59;;;;;;;5.10;2.85;;;35.80;34.80;;;;;;6307198;28;20041;-86
2022/05/09 09:05:03;;;;;;;5.43;2.15;;;36.00;34.40;;;;;;6304769;28;20102;-85
2022/05/09 09:08:21;;;;;;;3.13;2.55;;;36.10;34.50;;;;;;6304633;28;20045;-84
2022/05/09 09:11:32;;;;;;;4.85;2.53;;;35.80;34.30;;;;;;6302577;28;20045;-84
2022/05/09 09:14:46;;;;;;;7.05;2.53;;;35.70;35.30;;;;;;6305471;28;20048;-84
2022/05/09 09:18:12;;;;;;;7.78;2.47;;;36.10;34.90;;;;;;6302682;28;20518;-85
2022/05/09 09:21:24;;;;;;;5.45;2.80;;;36.60;34.10;;;;;;6302686;28;20068;-84
2022/05/09 09:24:38;;;;;;;3.53;2.50;;;37.10;34.00;;;;;;6302633;28;20044;-84
2022/05/09 09:27:45;;;;;;;6.53;2.80;;;37.40;33.00;;;;;;6304053;28;20123;-85
2022/05/09 09:30:47;;;;;;;4.10;2.63;;;36.90;33.40;;;;;;6305275;28;20045;-84
2022/05/09 09:33:56;;;;;;;3.30;2.00;;;36.00;33.80;;;;;;6307980;28;20044;-84
2022/05/09 09:37:07;;;;;;;4.45;1.90;;;35.60;34.90;;;;;;6306197;28;20045;-84
2022/05/09 09:40:09;;;;;;;3.70;2.05;;;36.20;34.80;;;;;;6305593;28;20470;-85
2022/05/09 09:43:11;;;;;;;4.38;2.53;;;36.00;34.30;;;;;;6306267;28;20056;-85
2022/05/09 09:46:13;;;;;;;5.25;2.63;;;36.00;34.70;;;;;;6308030;28;20107;-84
2022/05/09 09:49:19;;;;;;;6.90;2.83;;;36.00;34.20;;;;;;6305051;28;20123;-84
2022/05/09 09:52:29;;;;;;;3.88;2.22;;;35.70;34.50;;;;;;6305195;28;20159;-85
2022/05/09 09:55:33;;;;;;;4.47;2.63;;;35.50;35.00;;;;;;6304856;28;20045;-84
2022/05/09 09:58:38;;;;;;;5.13;2.00;;;35.80;34.90;;;;;;6301958;28;20052;-85
2022/05/09 10:01:40;;;;;;;3.97;2.25;;;35.80;34.50;;;;;;6303638;28;20048;-84
2022/05/09 10:04:42;;;;;;;9.60;2.65;;;35.20;34.70;;;;;;6305256;28;20045;-84
2022/05/09 10:07:46;;;;;;;4.90;2.58;;;34.30;35.80;;;;;;6302631;28;20055;-85
2022/05/09 10:11:03;;;;;;;3.80;2.28;;;33.00;36.80;;;;;;6314911;28;20074;-84
2022/05/09 10:14:07;;;;;;;3.17;2.20;;;31.90;38.70;;;;;;6315537;28;20494;-86
2022/05/09 10:17:19;;;;;;;4.72;1.83;;;31.40;39.90;;;;;;6309237;28;20098;-85
2022/05/09 10:20:28;;;;;;;3.40;1.90;;;31.30;40.70;;;;;;6301498;28;20041;-83
2022/05/09 10:26:56;;;;;;;9.65;3.13;;;30.80;40.80;;;;;;6301643;28;20052;-84
2022/05/09 10:30:00;;;;;;;5.07;2.53;;;30.60;41.10;;;;;;6305118;28;20103;-84
2022/05/09 10:33:09;;;;;;;3.90;2.20;;;30.70;40.50;;;;;;6300978;28;20048;-85
2022/05/09 10:36:18;;;;;;;2.67;2.13;;;30.50;41.00;;;;;;6302961;28;20465;-84
2022/05/09 10:39:26;;;;;;;4.15;1.90;;;30.30;40.70;;;;;;6300863;28;20059;-83
2022/05/09 10:42:37;;;;;;;8.05;2.67;;;30.00;41.20;;;;;;6300714;28;20055;-83
2022/05/09 10:45:44;;;;;;;16.70;2.45;;;29.40;41.60;;;;;;6302421;28;20321;-84
2022/05/09 10:48:53;;;;;;;7.50;1.95;;;29.30;43.00;;;;;;6302525;28;20055;-84
2022/05/09 10:52:05;;;;;;;3.25;1.88;;;29.80;42.40;;;;;;6300444;28;20064;-83
2022/05/09 10:55:16;;;;;;;5.43;2.13;;;30.10;41.60;;;;;;6301728;28;20471;-83
2022/05/09 10:58:25;;;;;;;3.47;2.03;;;30.30;42.10;;;;;;6303124;28;20059;-84
2022/05/09 11:01:31;;;;;;;3.30;2.40;;;30.20;41.80;;;;;;6303249;28;20044;-84
2022/05/09 11:04:36;;;;;;;4.43;1.60;;;29.70;40.90;;;;;;6304248;28;20110;-83
2022/05/09 11:07:45;;;;;;;4.47;2.38;;;29.60;40.80;;;;;;6302445;28;20568;-84
2022/05/09 11:11:01;;;;;;;4.90;2.22;;;29.60;42.00;;;;;;6306988;28;20080;-83
2022/05/09 11:14:13;;;;;;;4.43;2.35;;;29.70;41.70;;;;;;6301949;28;20094;-84
2022/05/09 11:17:26;;;;;;;4.22;1.98;;;29.50;41.10;;;;;;6303971;28;20040;-85
2022/05/09 11:20:37;;;;;;;4.32;2.40;;;29.70;42.40;;;;;;6310085;28;20617;-83
2022/05/09 11:23:50;;;;;;;4.72;2.05;;;29.60;42.00;;;;;;6301881;28;20044;-83
2022/05/09 11:27:04;;;;;;;3.25;1.60;;;29.50;43.20;;;;;;6303890;28;20048;-83
2022/05/09 11:30:26;;;;;;;2.45;1.75;;;29.40;42.20;;;;;;6306432;28;20111;-83
2022/05/09 11:33:41;;;;;;;2.70;2.10;;;29.40;42.20;;;;;;6303080;28;20469;-85
2022/05/09 11:36:59;;;;;;;4.78;1.92;;;29.50;42.30;;;;;;6303054;28;20052;-82
2022/05/09 11:40:09;;;;;;;6.05;2.25;;;29.40;41.00;;;;;;6301063;28;20037;-83
2022/05/09 11:43:33;;;;;;;3.67;2.08;;;29.30;42.00;;;;;;6297933;28;20041;-84
2022/05/09 11:47:06;;;;;;;3.80;1.80;;;29.70;42.30;;;;;;6300428;28;20133;-84
2022/05/09 11:50:21;;;;;;;5.05;2.05;;;29.90;42.10;;;;;;6299878;28;20114;-84
2022/05/09 11:53:27;;;;;;;4.43;1.80;;;30.00;40.90;;;;;;6300609;28;20127;-84
2022/05/09 11:56:31;;;;;;;4.10;2.22;;;29.70;41.30;;;;;;6300674;28;20071;-84
2022/05/09 11:59:36;;;;;;;4.70;2.30;;;29.50;39.70;;;;;;6299581;28;20512;-83
2022/05/09 12:02:50;;;;;;;6.75;2.60;;;29.60;40.90;;;;;;6301308;28;20052;-84
2022/05/09 12:06:00;;;;;;;5.78;2.00;;;29.50;42.20;;;;;;6300294;28;20045;-83
2022/05/09 12:09:05;;;;;;;2.75;1.80;;;29.30;42.50;;;;;;6299679;28;20598;-84
2022/05/09 12:12:07;;;;;;;7.28;2.00;;;29.40;43.40;;;;;;6300965;28;20099;-84
2022/05/09 12:15:41;;;;;;;5.68;1.88;;;30.00;42.70;;;;;;6301037;28;20048;-84
2022/05/09 12:18:55;;;;;;;6.47;2.47;;;30.20;40.70;;;;;;6301623;28;20055;-83
2022/05/09 12:22:49;;;;;;;3.45;2.17;;;30.30;39.60;;;;;;6298128;28;20052;-84
2022/05/09 12:26:03;;;;;;;3.22;2.10;;;30.80;40.00;;;;;;6301857;28;20044;-85
2022/05/09 12:29:29;;;;;;;2.10;1.27;;;30.80;39.60;;;;;;6302257;28;20437;-84
2022/05/09 12:32:32;;;;;;;6.47;2.42;;;30.50;40.20;;;;;;6300578;28;20627;-84
2022/05/09 12:35:34;;;;;;;3.90;1.92;;;30.20;39.80;;;;;;6299407;28;20044;-83
2022/05/09 12:38:40;;;;;;;4.80;2.05;;;30.10;40.60;;;;;;6299335;28;20049;-83
2022/05/09 12:41:56;;;;;;;4.55;2.35;;;30.20;40.90;;;;;;6297358;28;20121;-83
2022/05/09 12:45:03;;;;;;;5.25;2.30;;;30.70;40.70;;;;;;6297169;28;20048;-83
2022/05/09 12:48:11;;;;;;;4.78;1.80;;;31.10;40.40;;;;;;6299875;28;20127;-83
2022/05/09 12:51:14;;;;;;;5.18;2.17;;;30.60;39.60;;;;;;6299135;28;20108;-83
2022/05/09 12:54:22;;;;;;;4.57;2.65;;;30.30;39.40;;;;;;6299573;28;20050;-82
2022/05/09 12:57:33;;;;;;;6.00;1.50;;;30.40;40.20;;;;;;6298883;28;20062;-84
2022/05/09 13:00:38;;;;;;;6.00;2.10;;;30.70;39.30;;;;;;6298938;28;20040;-83
2022/05/09 13:03:48;;;;;;;4.28;1.98;;;30.80;38.10;;;;;;6299016;28;20409;-81
2022/05/09 13:06:53;;;;;;;3.13;1.75;;;30.60;38.10;;;;;;6299525;28;20052;-81
2022/05/09 13:09:57;;;;;;;2.65;2.20;;;30.60;38.90;;;;;;6298303;28;20065;-82
2022/05/09 13:13:03;;;;;;;2.78;2.40;;;30.80;38.20;;;;;;6298535;28;20040;-83
2022/05/09 13:16:05;;;;;;;3.45;1.33;;;31.00;38.30;;;;;;6298563;28;20525;-81
2022/05/09 13:19:15;;;;;;;3.92;1.60;;;31.10;36.60;;;;;;6299264;28;20052;-82
2022/05/09 13:22:22;;;;;;;4.43;1.58;;;30.60;36.80;;;;;;6299101;28;20165;-84
2022/05/09 13:25:29;;;;;;;5.55;2.30;;;30.30;37.80;;;;;;6297552;28;20071;-82
2022/05/09 13:28:43;;;;;;;2.45;1.90;;;30.20;39.20;;;;;;6297318;28;20045;-82
2022/05/09 13:31:48;;;;;;;5.43;2.20;;;30.10;39.60;;;;;;6298210;28;20051;-82
2022/05/09 13:34:52;;;;;;;1.95;1.60;;;29.80;39.00;;;;;;6298745;28;20052;-82
2022/05/09 13:37:54;;;;;;;3.13;1.92;;;29.50;39.90;;;;;;6299216;28;20045;-82
2022/05/09 13:41:03;;;;;;;4.55;1.85;;;29.40;39.60;;;;;;6298985;28;20119;-82
2022/05/09 13:44:06;;;;;;;6.05;2.05;;;29.50;39.80;;;;;;6297559;28;20043;-81
2022/05/09 13:47:10;;;;;;;2.70;1.38;;;29.40;38.70;;;;;;6290288;28;20130;-82
2022/05/09 13:50:14;;;;;;;3.10;1.88;;;29.30;39.50;;;;;;6299071;28;20044;-83
2022/05/09 13:53:21;;;;;;;2.80;1.67;;;29.80;39.70;;;;;;6297869;28;20070;-81
2022/05/09 13:56:26;;;;;;;3.03;2.17;;;30.10;38.80;;;;;;6298221;28;20506;-80
2022/05/09 13:59:29;;;;;;;2.72;1.52;;;30.20;39.60;;;;;;6298266;28;20056;-80
2022/05/09 14:02:32;;;;;;;5.32;2.00;;;30.10;39.20;;;;;;6298542;28;20102;-83
2022/05/09 14:05:36;;;;;;;4.40;2.03;;;29.70;39.70;;;;;;6297960;28;20580;-83
2022/05/09 14:08:39;;;;;;;4.22;2.13;;;29.30;40.40;;;;;;6298098;28;20056;-81
2022/05/09 14:11:54;;;;;;;4.78;1.50;;;29.00;40.70;;;;;;6298303;28;20119;-80
2022/05/09 14:15:03;;;;;;;2.47;1.50;;;28.90;41.40;;;;;;6297700;28;20098;-80
2022/05/09 14:18:09;;;;;;;7.30;1.60;;;28.70;41.70;;;;;;6297815;28;20055;-81
2022/05/09 14:21:17;;;;;;;5.80;1.95;;;28.70;41.00;;;;;;6298455;28;20124;-81
2022/05/09 14:24:26;;;;;;;4.38;1.85;;;28.80;41.40;;;;;;6298372;28;20040;-80
2022/05/09 14:30:48;;;;;;;4.63;1.50;;;28.70;41.10;;;;;;6297873;28;20131;-83
2022/05/09 14:33:50;;;;;;;2.55;1.75;;;29.00;42.10;;;;;;6298131;28;20498;-83
2022/05/09 14:37:09;;;;;;;3.72;1.95;;;29.10;40.10;;;;;;6299050;28;20106;-83
2022/05/09 14:40:18;;;;;;;2.40;1.80;;;29.10;40.00;;;;;;6298303;28;20040;-83
2022/05/09 14:43:29;;;;;;;3.10;1.60;;;29.10;40.90;;;;;;6297916;28;20060;-82
2022/05/09 14:46:31;;;;;;;2.85;1.80;;;29.20;41.10;;;;;;6296466;28;20045;-81
2022/05/09 14:49:40;;;;;;;4.25;1.88;;;29.00;41.00;;;;;;6296484;28;20056;-81
2022/05/09 14:52:51;;;;;;;1.75;1.50;;;28.90;41.10;;;;;;6298916;28;20044;-82
2022/05/09 14:59:31;;;;;;;4.20;2.42;;;28.90;41.50;;;;;;6224703;28;20049;-81
2022/05/09 15:02:34;;;;;;;2.95;1.70;;;28.90;40.90;;;;;;6303194;28;20050;-81
2022/05/09 15:05:37;;;;;;;6.13;1.75;;;28.90;41.60;;;;;;6303384;28;20048;-83
2022/05/09 15:08:41;;;;;;;6.03;1.90;;;29.30;41.10;;;;;;6302504;28;20410;-83
2022/05/09 15:11:43;;;;;;;2.88;1.38;;;29.40;40.50;;;;;;6305702;28;20056;-82
2022/05/09 15:14:46;;;;;;;5.85;1.88;;;29.30;40.40;;;;;;6302458;28;20049;-82
2022/05/09 15:17:48;;;;;;;3.58;1.90;;;29.30;40.40;;;;;;6303370;28;20102;-84
2022/05/09 15:20:51;;;;;;;4.13;1.60;;;29.00;39.90;;;;;;6306783;28;20041;-83
2022/05/09 15:23:55;;;;;;;2.55;1.75;;;28.90;40.40;;;;;;6306092;28;20052;-83
2022/05/09 15:26:56;;;;;;;3.83;1.50;;;28.90;40.50;;;;;;6309167;28;20194;-82
2022/05/09 15:29:58;;;;;;;4.28;1.90;;;29.00;41.20;;;;;;6305708;28;20045;-82
2022/05/09 15:33:00;;;;;;;2.58;1.65;;;29.10;41.20;;;;;;6308445;28;20064;-82
2022/05/09 15:36:03;;;;;;;1.77;1.63;;;29.10;40.60;;;;;;6310417;28;20044;-83
2022/05/09 15:39:08;;;;;;;5.70;1.65;;;28.90;41.00;;;;;;6308736;28;20190;-82
2022/05/09 15:42:24;;;;;;;2.67;1.95;;;29.10;41.20;;;;;;6307362;28;20045;-83
2022/05/09 15:45:26;;;;;;;4.13;1.15;;;29.00;40.00;;;;;;6304144;28;20041;-83
2022/05/09 15:48:29;;;;;;;5.47;2.22;;;28.80;39.60;;;;;;6303747;28;20045;-82
2022/05/09 15:51:31;;;;;;;2.58;1.50;;;28.60;40.40;;;;;;6307373;28;20040;-83
2022/05/09 15:54:34;;;;;;;3.72;1.35;;;28.70;39.90;;;;;;6305259;28;20048;-83
2022/05/09 15:57:36;;;;;;;3.15;1.63;;;28.80;40.20;;;;;;6301748;28;20044;-83
2022/05/09 16:00:41;;;;;;;2.97;1.70;;;29.10;40.30;;;;;;6304251;28;20505;-83
2022/05/09 16:03:44;;;;;;;4.18;1.50;;;29.10;40.40;;;;;;6304120;28;20444;-82
2022/05/09 16:13:29;;;;;;;3.70;2.13;;;28.70;40.80;;;;;;6305831;28;20041;-83
2022/05/09 16:16:35;;;;;;;12.85;2.13;;;28.50;41.10;;;;;;6303022;28;20549;-83
2022/05/09 16:19:40;;;;;;;1.93;1.73;;;28.40;41.90;;;;;;6303072;28;20033;-81
2022/05/09 16:22:42;;;;;;;5.50;1.40;;;28.20;41.50;;;;;;6302826;28;20068;-83
2022/05/09 16:25:46;;;;;;;3.63;2.10;;;28.00;42.00;;;;;;6301312;28;20044;-83
2022/05/09 16:28:48;;;;;;;5.25;1.55;;;27.90;41.60;;;;;;6298824;28;20045;-83
2022/05/09 16:31:51;;;;;;;5.13;2.20;;;27.60;41.70;;;;;;6299812;28;20079;-83